sensor_id;sensor_type;location;lat;lon;timestamp;P1;durP1;ratioP1;P2;durP2;ratioP2
83895;SDS011;74045;42.812;74.638;2024-02-14T00:00:11;11.27;;;5.00;;
83895;SDS011;74045;42.812;74.638;2024-02-14T00:02:40;10.55;;;5.85;;
83895;SDS011;74045;42.812;74.638;2024-02-14T00:05:08;11.77;;;4.80;;
83895;SDS011;74045;42.812;74.638;2024-02-14T00:07:36;13.55;;;5.20;;
83895;SDS011;74045;42.812;74.638;2024-02-14T00:10:02;16.23;;;4.70;;
83895;SDS011;74045;42.812;74.638;2024-02-14T00:12:31;23.50;;;4.28;;
83895;SDS011;74045;42.812;74.638;2024-02-14T00:15:00;9.93;;;4.30;;
83895;SDS011;74045;42.812;74.638;2024-02-14T00:17:31;14.32;;;3.75;;
83895;SDS011;74045;42.812;74.638;2024-02-14T00:19:56;14.32;;;6.65;;
83895;SDS011;74045;42.812;74.638;2024-02-14T00:22:23;25.23;;;9.45;;
83895;SDS011;74045;42.812;74.638;2024-02-14T00:24:49;19.30;;;7.45;;
83895;SDS011;74045;42.812;74.638;2024-02-14T00:27:15;18.52;;;6.63;;
83895;SDS011;74045;42.812;74.638;2024-02-14T00:29:42;12.85;;;6.05;;
83895;SDS011;74045;42.812;74.638;2024-02-14T00:32:10;15.02;;;4.93;;
83895;SDS011;74045;42.812;74.638;2024-02-14T00:34:37;7.65;;;3.60;;
83895;SDS011;74045;42.812;74.638;2024-02-14T00:37:02;11.73;;;4.07;;
83895;SDS011;74045;42.812;74.638;2024-02-14T00:39:28;9.43;;;4.25;;
83895;SDS011;74045;42.812;74.638;2024-02-14T00:41:54;12.57;;;5.25;;
83895;SDS011;74045;42.812;74.638;2024-02-14T00:44:21;20.63;;;6.15;;
83895;SDS011;74045;42.812;74.638;2024-02-14T00:46:47;17.92;;;6.97;;
83895;SDS011;74045;42.812;74.638;2024-02-14T00:49:13;23.48;;;7.82;;
83895;SDS011;74045;42.812;74.638;2024-02-14T00:51:40;24.90;;;7.20;;
83895;SDS011;74045;42.812;74.638;2024-02-14T00:54:06;14.40;;;6.43;;
83895;SDS011;74045;42.812;74.638;2024-02-14T00:56:32;17.17;;;6.95;;
83895;SDS011;74045;42.812;74.638;2024-02-14T00:58:58;18.88;;;7.35;;
83895;SDS011;74045;42.812;74.638;2024-02-14T01:01:23;21.80;;;7.38;;
83895;SDS011;74045;42.812;74.638;2024-02-14T01:03:49;27.45;;;7.55;;
83895;SDS011;74045;42.812;74.638;2024-02-14T01:06:15;12.30;;;5.47;;
83895;SDS011;74045;42.812;74.638;2024-02-14T01:08:41;17.77;;;5.40;;
83895;SDS011;74045;42.812;74.638;2024-02-14T01:11:07;12.60;;;5.05;;
83895;SDS011;74045;42.812;74.638;2024-02-14T01:13:35;10.52;;;5.05;;
83895;SDS011;74045;42.812;74.638;2024-02-14T01:16:02;12.20;;;4.88;;
83895;SDS011;74045;42.812;74.638;2024-02-14T01:18:29;15.60;;;4.75;;
83895;SDS011;74045;42.812;74.638;2024-02-14T01:20:55;19.67;;;5.55;;
83895;SDS011;74045;42.812;74.638;2024-02-14T01:23:21;17.00;;;5.05;;
83895;SDS011;74045;42.812;74.638;2024-02-14T01:25:46;21.17;;;5.05;;
83895;SDS011;74045;42.812;74.638;2024-02-14T01:28:12;16.13;;;5.75;;
83895;SDS011;74045;42.812;74.638;2024-02-14T01:30:38;20.75;;;5.20;;
83895;SDS011;74045;42.812;74.638;2024-02-14T01:33:04;23.98;;;5.82;;
83895;SDS011;74045;42.812;74.638;2024-02-14T01:35:30;16.65;;;5.65;;
83895;SDS011;74045;42.812;74.638;2024-02-14T01:37:56;38.72;;;6.53;;
83895;SDS011;74045;42.812;74.638;2024-02-14T01:40:22;18.17;;;6.10;;
83895;SDS011;74045;42.812;74.638;2024-02-14T01:42:48;25.52;;;6.80;;
83895;SDS011;74045;42.812;74.638;2024-02-14T01:45:14;27.90;;;9.27;;
83895;SDS011;74045;42.812;74.638;2024-02-14T01:47:40;35.50;;;10.35;;
83895;SDS011;74045;42.812;74.638;2024-02-14T01:50:09;28.02;;;9.07;;
83895;SDS011;74045;42.812;74.638;2024-02-14T01:52:37;28.13;;;10.32;;
83895;SDS011;74045;42.812;74.638;2024-02-14T01:55:07;39.88;;;10.02;;
83895;SDS011;74045;42.812;74.638;2024-02-14T01:57:34;61.75;;;10.88;;
83895;SDS011;74045;42.812;74.638;2024-02-14T02:00:00;46.92;;;8.90;;
83895;SDS011;74045;42.812;74.638;2024-02-14T02:02:33;37.22;;;9.27;;
83895;SDS011;74045;42.812;74.638;2024-02-14T02:05:02;22.67;;;7.85;;
83895;SDS011;74045;42.812;74.638;2024-02-14T02:07:28;16.10;;;6.50;;
83895;SDS011;74045;42.812;74.638;2024-02-14T02:09:56;20.92;;;7.20;;
83895;SDS011;74045;42.812;74.638;2024-02-14T02:12:22;15.70;;;6.30;;
83895;SDS011;74045;42.812;74.638;2024-02-14T02:14:50;25.42;;;7.90;;
83895;SDS011;74045;42.812;74.638;2024-02-14T02:17:16;22.15;;;7.60;;
83895;SDS011;74045;42.812;74.638;2024-02-14T02:19:43;25.42;;;9.63;;
83895;SDS011;74045;42.812;74.638;2024-02-14T02:22:08;31.00;;;9.02;;
83895;SDS011;74045;42.812;74.638;2024-02-14T02:24:35;22.52;;;7.50;;
83895;SDS011;74045;42.812;74.638;2024-02-14T02:27:01;24.48;;;8.45;;
83895;SDS011;74045;42.812;74.638;2024-02-14T02:29:28;19.15;;;8.43;;
83895;SDS011;74045;42.812;74.638;2024-02-14T02:31:54;18.90;;;8.48;;
83895;SDS011;74045;42.812;74.638;2024-02-14T02:34:19;26.77;;;9.60;;
83895;SDS011;74045;42.812;74.638;2024-02-14T02:36:45;26.55;;;9.80;;
83895;SDS011;74045;42.812;74.638;2024-02-14T02:39:11;24.42;;;8.95;;
83895;SDS011;74045;42.812;74.638;2024-02-14T02:41:39;38.33;;;12.43;;
83895;SDS011;74045;42.812;74.638;2024-02-14T02:44:04;44.35;;;15.77;;
83895;SDS011;74045;42.812;74.638;2024-02-14T02:46:31;41.22;;;15.85;;
83895;SDS011;74045;42.812;74.638;2024-02-14T02:48:57;58.58;;;18.48;;
83895;SDS011;74045;42.812;74.638;2024-02-14T02:51:23;60.35;;;21.73;;
83895;SDS011;74045;42.812;74.638;2024-02-14T02:53:49;71.35;;;22.08;;
83895;SDS011;74045;42.812;74.638;2024-02-14T02:56:17;70.88;;;24.48;;
83895;SDS011;74045;42.812;74.638;2024-02-14T02:58:43;78.63;;;26.33;;
83895;SDS011;74045;42.812;74.638;2024-02-14T03:01:10;75.75;;;26.15;;
83895;SDS011;74045;42.812;74.638;2024-02-14T03:03:37;65.53;;;23.85;;
83895;SDS011;74045;42.812;74.638;2024-02-14T03:06:04;57.80;;;19.95;;
83895;SDS011;74045;42.812;74.638;2024-02-14T03:08:30;52.67;;;19.15;;
83895;SDS011;74045;42.812;74.638;2024-02-14T03:11:04;41.60;;;15.48;;
83895;SDS011;74045;42.812;74.638;2024-02-14T03:13:31;37.08;;;14.07;;
83895;SDS011;74045;42.812;74.638;2024-02-14T03:15:56;29.02;;;12.63;;
83895;SDS011;74045;42.812;74.638;2024-02-14T03:18:24;27.67;;;9.80;;
83895;SDS011;74045;42.812;74.638;2024-02-14T03:20:50;21.33;;;9.20;;
83895;SDS011;74045;42.812;74.638;2024-02-14T03:23:16;26.77;;;9.85;;
83895;SDS011;74045;42.812;74.638;2024-02-14T03:25:41;35.15;;;11.48;;
83895;SDS011;74045;42.812;74.638;2024-02-14T03:28:07;31.48;;;10.27;;
83895;SDS011;74045;42.812;74.638;2024-02-14T03:30:37;33.28;;;9.85;;
83895;SDS011;74045;42.812;74.638;2024-02-14T03:33:04;46.50;;;12.25;;
83895;SDS011;74045;42.812;74.638;2024-02-14T03:35:33;36.20;;;9.82;;
83895;SDS011;74045;42.812;74.638;2024-02-14T03:38:01;29.75;;;8.77;;
83895;SDS011;74045;42.812;74.638;2024-02-14T03:40:27;32.75;;;10.68;;
83895;SDS011;74045;42.812;74.638;2024-02-14T03:42:55;22.77;;;9.32;;
83895;SDS011;74045;42.812;74.638;2024-02-14T03:45:22;30.77;;;10.50;;
83895;SDS011;74045;42.812;74.638;2024-02-14T03:47:48;25.80;;;10.10;;
83895;SDS011;74045;42.812;74.638;2024-02-14T03:50:13;22.92;;;10.48;;
83895;SDS011;74045;42.812;74.638;2024-02-14T03:52:40;23.70;;;9.30;;
83895;SDS011;74045;42.812;74.638;2024-02-14T03:55:07;33.03;;;10.07;;
83895;SDS011;74045;42.812;74.638;2024-02-14T03:57:38;29.20;;;9.27;;
83895;SDS011;74045;42.812;74.638;2024-02-14T04:00:05;29.60;;;7.95;;
83895;SDS011;74045;42.812;74.638;2024-02-14T04:02:35;29.65;;;7.78;;
83895;SDS011;74045;42.812;74.638;2024-02-14T04:05:01;18.75;;;6.60;;
83895;SDS011;74045;42.812;74.638;2024-02-14T04:07:27;25.67;;;6.85;;
83895;SDS011;74045;42.812;74.638;2024-02-14T04:09:55;21.20;;;5.85;;
83895;SDS011;74045;42.812;74.638;2024-02-14T04:12:21;10.25;;;4.90;;
83895;SDS011;74045;42.812;74.638;2024-02-14T04:14:47;23.77;;;5.10;;
83895;SDS011;74045;42.812;74.638;2024-02-14T04:17:12;23.50;;;5.45;;
83895;SDS011;74045;42.812;74.638;2024-02-14T04:19:39;12.18;;;5.13;;
83895;SDS011;74045;42.812;74.638;2024-02-14T04:22:05;19.30;;;5.45;;
83895;SDS011;74045;42.812;74.638;2024-02-14T04:24:33;12.18;;;5.70;;
83895;SDS011;74045;42.812;74.638;2024-02-14T04:26:59;28.08;;;7.38;;
83895;SDS011;74045;42.812;74.638;2024-02-14T04:29:27;26.33;;;7.03;;
83895;SDS011;74045;42.812;74.638;2024-02-14T04:31:55;15.38;;;5.65;;
83895;SDS011;74045;42.812;74.638;2024-02-14T04:34:21;27.20;;;5.45;;
83895;SDS011;74045;42.812;74.638;2024-02-14T04:36:47;24.13;;;9.25;;
83895;SDS011;74045;42.812;74.638;2024-02-14T04:39:13;30.50;;;9.48;;
83895;SDS011;74045;42.812;74.638;2024-02-14T04:41:39;21.73;;;8.80;;
83895;SDS011;74045;42.812;74.638;2024-02-14T04:44:04;26.40;;;9.13;;
83895;SDS011;74045;42.812;74.638;2024-02-14T04:46:33;31.60;;;9.45;;
83895;SDS011;74045;42.812;74.638;2024-02-14T04:49:04;26.92;;;8.90;;
83895;SDS011;74045;42.812;74.638;2024-02-14T04:51:30;28.88;;;8.95;;
83895;SDS011;74045;42.812;74.638;2024-02-14T04:53:56;24.77;;;8.55;;
83895;SDS011;74045;42.812;74.638;2024-02-14T04:56:26;21.83;;;7.60;;
83895;SDS011;74045;42.812;74.638;2024-02-14T04:58:53;18.30;;;7.82;;
83895;SDS011;74045;42.812;74.638;2024-02-14T05:01:20;23.95;;;7.95;;
83895;SDS011;74045;42.812;74.638;2024-02-14T05:03:45;19.45;;;6.68;;
83895;SDS011;74045;42.812;74.638;2024-02-14T05:06:11;15.55;;;5.80;;
83895;SDS011;74045;42.812;74.638;2024-02-14T05:08:37;31.55;;;7.22;;
83895;SDS011;74045;42.812;74.638;2024-02-14T05:11:03;21.85;;;6.63;;
83895;SDS011;74045;42.812;74.638;2024-02-14T05:13:29;16.67;;;5.30;;
83895;SDS011;74045;42.812;74.638;2024-02-14T05:15:55;14.75;;;5.25;;
83895;SDS011;74045;42.812;74.638;2024-02-14T05:18:21;13.45;;;3.90;;
83895;SDS011;74045;42.812;74.638;2024-02-14T05:20:47;15.63;;;3.92;;
83895;SDS011;74045;42.812;74.638;2024-02-14T05:23:14;11.07;;;4.18;;
83895;SDS011;74045;42.812;74.638;2024-02-14T05:25:42;16.67;;;4.55;;
83895;SDS011;74045;42.812;74.638;2024-02-14T05:28:09;17.40;;;4.10;;
83895;SDS011;74045;42.812;74.638;2024-02-14T05:30:38;12.65;;;3.63;;
83895;SDS011;74045;42.812;74.638;2024-02-14T05:33:07;5.68;;;2.50;;
83895;SDS011;74045;42.812;74.638;2024-02-14T05:35:33;15.98;;;3.03;;
83895;SDS011;74045;42.812;74.638;2024-02-14T05:37:58;12.95;;;2.90;;
83895;SDS011;74045;42.812;74.638;2024-02-14T05:40:24;5.13;;;2.47;;
83895;SDS011;74045;42.812;74.638;2024-02-14T05:42:50;6.35;;;2.70;;
83895;SDS011;74045;42.812;74.638;2024-02-14T05:45:16;10.27;;;2.30;;
83895;SDS011;74045;42.812;74.638;2024-02-14T05:47:42;11.27;;;3.33;;
83895;SDS011;74045;42.812;74.638;2024-02-14T05:50:08;8.68;;;2.92;;
83895;SDS011;74045;42.812;74.638;2024-02-14T05:52:36;11.85;;;2.80;;
83895;SDS011;74045;42.812;74.638;2024-02-14T05:55:03;10.80;;;3.30;;
83895;SDS011;74045;42.812;74.638;2024-02-14T05:57:30;12.23;;;3.40;;
83895;SDS011;74045;42.812;74.638;2024-02-14T05:59:55;14.98;;;4.30;;
83895;SDS011;74045;42.812;74.638;2024-02-14T06:02:21;16.35;;;5.25;;
83895;SDS011;74045;42.812;74.638;2024-02-14T06:04:47;13.07;;;4.50;;
83895;SDS011;74045;42.812;74.638;2024-02-14T06:07:12;6.00;;;2.60;;
83895;SDS011;74045;42.812;74.638;2024-02-14T06:09:38;8.95;;;3.60;;
83895;SDS011;74045;42.812;74.638;2024-02-14T06:12:04;9.38;;;4.28;;
83895;SDS011;74045;42.812;74.638;2024-02-14T06:14:30;9.45;;;4.65;;
83895;SDS011;74045;42.812;74.638;2024-02-14T06:16:59;10.25;;;5.00;;
83895;SDS011;74045;42.812;74.638;2024-02-14T06:19:26;9.43;;;5.40;;
83895;SDS011;74045;42.812;74.638;2024-02-14T06:21:51;8.77;;;3.83;;
83895;SDS011;74045;42.812;74.638;2024-02-14T06:24:17;9.45;;;5.38;;
83895;SDS011;74045;42.812;74.638;2024-02-14T06:26:44;11.35;;;5.50;;
83895;SDS011;74045;42.812;74.638;2024-02-14T06:29:10;6.75;;;3.20;;
83895;SDS011;74045;42.812;74.638;2024-02-14T06:31:36;5.63;;;2.90;;
83895;SDS011;74045;42.812;74.638;2024-02-14T06:34:02;12.65;;;6.63;;
83895;SDS011;74045;42.812;74.638;2024-02-14T06:36:27;5.60;;;3.05;;
83895;SDS011;74045;42.812;74.638;2024-02-14T06:38:53;5.22;;;3.40;;
83895;SDS011;74045;42.812;74.638;2024-02-14T06:41:19;11.68;;;3.40;;
83895;SDS011;74045;42.812;74.638;2024-02-14T06:43:48;6.03;;;3.55;;
83895;SDS011;74045;42.812;74.638;2024-02-14T06:46:14;7.00;;;3.80;;
83895;SDS011;74045;42.812;74.638;2024-02-14T06:48:40;14.40;;;4.85;;
83895;SDS011;74045;42.812;74.638;2024-02-14T06:51:06;14.77;;;8.35;;
83895;SDS011;74045;42.812;74.638;2024-02-14T06:53:32;29.20;;;7.60;;
83895;SDS011;74045;42.812;74.638;2024-02-14T06:55:58;19.65;;;7.72;;
83895;SDS011;74045;42.812;74.638;2024-02-14T06:58:23;22.60;;;10.68;;
83895;SDS011;74045;42.812;74.638;2024-02-14T07:00:49;20.00;;;6.70;;
83895;SDS011;74045;42.812;74.638;2024-02-14T07:03:15;11.60;;;5.38;;
83895;SDS011;74045;42.812;74.638;2024-02-14T07:05:41;17.25;;;5.00;;
83895;SDS011;74045;42.812;74.638;2024-02-14T07:08:07;14.88;;;4.57;;
83895;SDS011;74045;42.812;74.638;2024-02-14T07:10:33;9.55;;;4.72;;
83895;SDS011;74045;42.812;74.638;2024-02-14T07:12:58;8.57;;;3.80;;
83895;SDS011;74045;42.812;74.638;2024-02-14T07:15:24;6.68;;;3.85;;
83895;SDS011;74045;42.812;74.638;2024-02-14T07:17:56;10.27;;;3.67;;
83895;SDS011;74045;42.812;74.638;2024-02-14T07:20:23;7.85;;;3.97;;
83895;SDS011;74045;42.812;74.638;2024-02-14T07:22:51;6.75;;;2.72;;
83895;SDS011;74045;42.812;74.638;2024-02-14T07:25:21;7.47;;;2.50;;
83895;SDS011;74045;42.812;74.638;2024-02-14T07:27:48;7.75;;;3.00;;
83895;SDS011;74045;42.812;74.638;2024-02-14T07:30:15;8.48;;;2.58;;
83895;SDS011;74045;42.812;74.638;2024-02-14T07:32:42;5.15;;;2.40;;
83895;SDS011;74045;42.812;74.638;2024-02-14T07:35:09;4.65;;;2.05;;
83895;SDS011;74045;42.812;74.638;2024-02-14T07:37:34;5.47;;;2.60;;
83895;SDS011;74045;42.812;74.638;2024-02-14T07:40:00;9.05;;;2.35;;
83895;SDS011;74045;42.812;74.638;2024-02-14T07:42:26;7.07;;;2.40;;
83895;SDS011;74045;42.812;74.638;2024-02-14T07:44:52;8.73;;;2.63;;
83895;SDS011;74045;42.812;74.638;2024-02-14T07:47:18;14.20;;;3.85;;
83895;SDS011;74045;42.812;74.638;2024-02-14T07:49:44;9.63;;;2.67;;
83895;SDS011;74045;42.812;74.638;2024-02-14T07:52:10;8.23;;;3.20;;
83895;SDS011;74045;42.812;74.638;2024-02-14T07:54:36;5.78;;;2.40;;
83895;SDS011;74045;42.812;74.638;2024-02-14T07:57:01;4.68;;;2.90;;
83895;SDS011;74045;42.812;74.638;2024-02-14T07:59:27;12.45;;;3.17;;
83895;SDS011;74045;42.812;74.638;2024-02-14T08:01:53;7.80;;;2.90;;
83895;SDS011;74045;42.812;74.638;2024-02-14T08:04:19;10.93;;;3.03;;
83895;SDS011;74045;42.812;74.638;2024-02-14T08:06:46;7.45;;;2.83;;
83895;SDS011;74045;42.812;74.638;2024-02-14T08:09:14;7.38;;;2.30;;
83895;SDS011;74045;42.812;74.638;2024-02-14T08:11:40;5.90;;;2.72;;
83895;SDS011;74045;42.812;74.638;2024-02-14T08:14:05;8.93;;;2.53;;
83895;SDS011;74045;42.812;74.638;2024-02-14T08:16:31;8.70;;;2.45;;
83895;SDS011;74045;42.812;74.638;2024-02-14T08:18:57;5.78;;;2.60;;
83895;SDS011;74045;42.812;74.638;2024-02-14T08:21:26;7.13;;;2.40;;
83895;SDS011;74045;42.812;74.638;2024-02-14T08:23:52;9.75;;;3.08;;
83895;SDS011;74045;42.812;74.638;2024-02-14T08:26:20;9.18;;;2.50;;
83895;SDS011;74045;42.812;74.638;2024-02-14T08:28:49;5.90;;;2.47;;
83895;SDS011;74045;42.812;74.638;2024-02-14T08:31:15;4.82;;;2.30;;
83895;SDS011;74045;42.812;74.638;2024-02-14T08:33:41;4.47;;;2.35;;
83895;SDS011;74045;42.812;74.638;2024-02-14T08:36:06;5.55;;;2.65;;
83895;SDS011;74045;42.812;74.638;2024-02-14T08:38:32;7.28;;;1.92;;
83895;SDS011;74045;42.812;74.638;2024-02-14T08:41:00;4.47;;;2.45;;
83895;SDS011;74045;42.812;74.638;2024-02-14T08:43:30;6.53;;;2.83;;
83895;SDS011;74045;42.812;74.638;2024-02-14T08:45:56;4.63;;;2.45;;
83895;SDS011;74045;42.812;74.638;2024-02-14T08:48:22;5.18;;;2.55;;
83895;SDS011;74045;42.812;74.638;2024-02-14T08:50:49;4.43;;;2.60;;
83895;SDS011;74045;42.812;74.638;2024-02-14T08:53:15;11.68;;;3.17;;
83895;SDS011;74045;42.812;74.638;2024-02-14T08:55:41;10.27;;;3.67;;
83895;SDS011;74045;42.812;74.638;2024-02-14T08:58:07;8.55;;;2.60;;
83895;SDS011;74045;42.812;74.638;2024-02-14T09:00:37;7.07;;;2.63;;
83895;SDS011;74045;42.812;74.638;2024-02-14T09:03:04;6.60;;;2.83;;
83895;SDS011;74045;42.812;74.638;2024-02-14T09:05:30;8.30;;;2.55;;
83895;SDS011;74045;42.812;74.638;2024-02-14T09:07:56;9.10;;;2.47;;
83895;SDS011;74045;42.812;74.638;2024-02-14T09:10:22;7.03;;;2.50;;
83895;SDS011;74045;42.812;74.638;2024-02-14T09:12:48;4.03;;;2.25;;
83895;SDS011;74045;42.812;74.638;2024-02-14T09:15:14;8.18;;;2.70;;
83895;SDS011;74045;42.812;74.638;2024-02-14T09:17:40;6.32;;;2.70;;
83895;SDS011;74045;42.812;74.638;2024-02-14T09:20:08;11.20;;;2.55;;
83895;SDS011;74045;42.812;74.638;2024-02-14T09:22:37;9.02;;;3.58;;
83895;SDS011;74045;42.812;74.638;2024-02-14T09:25:06;12.40;;;2.63;;
83895;SDS011;74045;42.812;74.638;2024-02-14T09:27:34;6.65;;;3.25;;
83895;SDS011;74045;42.812;74.638;2024-02-14T09:30:01;26.63;;;3.03;;
83895;SDS011;74045;42.812;74.638;2024-02-14T09:32:29;11.05;;;2.47;;
83895;SDS011;74045;42.812;74.638;2024-02-14T09:35:01;11.30;;;3.15;;
83895;SDS011;74045;42.812;74.638;2024-02-14T09:37:29;15.75;;;3.05;;
83895;SDS011;74045;42.812;74.638;2024-02-14T09:39:55;6.97;;;2.67;;
83895;SDS011;74045;42.812;74.638;2024-02-14T09:42:24;5.57;;;2.75;;
83895;SDS011;74045;42.812;74.638;2024-02-14T09:44:58;10.57;;;3.00;;
83895;SDS011;74045;42.812;74.638;2024-02-14T09:47:27;9.48;;;2.83;;
83895;SDS011;74045;42.812;74.638;2024-02-14T09:49:57;10.73;;;3.58;;
83895;SDS011;74045;42.812;74.638;2024-02-14T09:52:25;8.43;;;3.08;;
83895;SDS011;74045;42.812;74.638;2024-02-14T09:54:52;5.65;;;2.60;;
83895;SDS011;74045;42.812;74.638;2024-02-14T09:57:18;8.70;;;3.30;;
83895;SDS011;74045;42.812;74.638;2024-02-14T09:59:45;8.23;;;2.83;;
83895;SDS011;74045;42.812;74.638;2024-02-14T10:02:13;12.30;;;2.60;;
83895;SDS011;74045;42.812;74.638;2024-02-14T10:04:39;7.85;;;2.85;;
83895;SDS011;74045;42.812;74.638;2024-02-14T10:07:05;7.00;;;3.58;;
83895;SDS011;74045;42.812;74.638;2024-02-14T10:09:30;8.80;;;3.58;;
83895;SDS011;74045;42.812;74.638;2024-02-14T10:12:04;21.88;;;3.38;;
83895;SDS011;74045;42.812;74.638;2024-02-14T10:14:30;16.52;;;3.10;;
83895;SDS011;74045;42.812;74.638;2024-02-14T10:16:56;10.65;;;3.10;;
83895;SDS011;74045;42.812;74.638;2024-02-14T10:19:22;18.77;;;3.40;;
83895;SDS011;74045;42.812;74.638;2024-02-14T10:24:41;16.02;;;3.38;;
83895;SDS011;74045;42.812;74.638;2024-02-14T10:27:06;8.70;;;3.20;;
83895;SDS011;74045;42.812;74.638;2024-02-14T10:29:33;6.07;;;2.80;;
83895;SDS011;74045;42.812;74.638;2024-02-14T10:31:59;10.13;;;2.47;;
83895;SDS011;74045;42.812;74.638;2024-02-14T10:34:25;7.85;;;3.10;;
83895;SDS011;74045;42.812;74.638;2024-02-14T10:36:52;8.35;;;3.00;;
83895;SDS011;74045;42.812;74.638;2024-02-14T10:39:21;12.05;;;2.97;;
83895;SDS011;74045;42.812;74.638;2024-02-14T10:41:50;8.38;;;2.95;;
83895;SDS011;74045;42.812;74.638;2024-02-14T10:44:16;10.88;;;2.53;;
83895;SDS011;74045;42.812;74.638;2024-02-14T10:46:42;7.20;;;2.85;;
83895;SDS011;74045;42.812;74.638;2024-02-14T10:49:11;6.55;;;2.65;;
83895;SDS011;74045;42.812;74.638;2024-02-14T10:51:40;5.35;;;2.72;;
83895;SDS011;74045;42.812;74.638;2024-02-14T10:54:11;6.57;;;2.70;;
83895;SDS011;74045;42.812;74.638;2024-02-14T10:56:39;19.23;;;3.30;;
83895;SDS011;74045;42.812;74.638;2024-02-14T10:59:08;15.35;;;3.47;;
83895;SDS011;74045;42.812;74.638;2024-02-14T11:01:36;12.70;;;4.40;;
83895;SDS011;74045;42.812;74.638;2024-02-14T11:04:03;12.82;;;4.30;;
83895;SDS011;74045;42.812;74.638;2024-02-14T11:06:43;8.38;;;3.17;;
83895;SDS011;74045;42.812;74.638;2024-02-14T11:09:13;13.52;;;3.30;;
83895;SDS011;74045;42.812;74.638;2024-02-14T11:11:41;18.90;;;3.95;;
83895;SDS011;74045;42.812;74.638;2024-02-14T11:14:15;29.52;;;4.15;;
83895;SDS011;74045;42.812;74.638;2024-02-14T11:16:44;23.67;;;5.10;;
83895;SDS011;74045;42.812;74.638;2024-02-14T11:19:11;27.30;;;4.97;;
83895;SDS011;74045;42.812;74.638;2024-02-14T11:21:41;33.15;;;5.85;;
83895;SDS011;74045;42.812;74.638;2024-02-14T11:24:09;28.40;;;4.60;;
83895;SDS011;74045;42.812;74.638;2024-02-14T11:26:39;25.17;;;4.68;;
83895;SDS011;74045;42.812;74.638;2024-02-14T11:29:13;26.03;;;8.33;;
83895;SDS011;74045;42.812;74.638;2024-02-14T11:31:41;28.30;;;5.18;;
83895;SDS011;74045;42.812;74.638;2024-02-14T11:34:08;21.80;;;5.13;;
83895;SDS011;74045;42.812;74.638;2024-02-14T11:36:37;30.00;;;6.35;;
83895;SDS011;74045;42.812;74.638;2024-02-14T11:39:06;29.23;;;7.60;;
83895;SDS011;74045;42.812;74.638;2024-02-14T11:41:32;43.70;;;7.22;;
83895;SDS011;74045;42.812;74.638;2024-02-14T11:44:03;45.25;;;6.93;;
83895;SDS011;74045;42.812;74.638;2024-02-14T11:46:32;32.10;;;7.40;;
83895;SDS011;74045;42.812;74.638;2024-02-14T11:48:59;30.88;;;6.15;;
83895;SDS011;74045;42.812;74.638;2024-02-14T11:51:30;45.53;;;7.57;;
83895;SDS011;74045;42.812;74.638;2024-02-14T11:53:58;39.88;;;7.65;;
83895;SDS011;74045;42.812;74.638;2024-02-14T11:56:30;73.30;;;7.45;;
83895;SDS011;74045;42.812;74.638;2024-02-14T11:59:02;43.28;;;7.22;;
83895;SDS011;74045;42.812;74.638;2024-02-14T12:01:31;33.95;;;7.00;;
83895;SDS011;74045;42.812;74.638;2024-02-14T12:03:59;49.60;;;7.63;;
83895;SDS011;74045;42.812;74.638;2024-02-14T12:06:32;62.67;;;9.15;;
83895;SDS011;74045;42.812;74.638;2024-02-14T12:09:03;44.13;;;9.35;;
83895;SDS011;74045;42.812;74.638;2024-02-14T12:11:33;34.58;;;8.57;;
83895;SDS011;74045;42.812;74.638;2024-02-14T12:14:07;58.60;;;11.00;;
83895;SDS011;74045;42.812;74.638;2024-02-14T12:16:34;66.57;;;11.20;;
83895;SDS011;74045;42.812;74.638;2024-02-14T12:19:08;67.10;;;13.85;;
83895;SDS011;74045;42.812;74.638;2024-02-14T12:21:40;52.05;;;13.50;;
83895;SDS011;74045;42.812;74.638;2024-02-14T12:24:08;53.25;;;13.32;;
83895;SDS011;74045;42.812;74.638;2024-02-14T12:26:36;56.08;;;14.45;;
83895;SDS011;74045;42.812;74.638;2024-02-14T12:29:02;53.42;;;14.25;;
83895;SDS011;74045;42.812;74.638;2024-02-14T12:31:29;53.35;;;14.90;;
83895;SDS011;74045;42.812;74.638;2024-02-14T12:33:58;47.03;;;12.45;;
83895;SDS011;74045;42.812;74.638;2024-02-14T12:36:27;50.63;;;13.43;;
83895;SDS011;74045;42.812;74.638;2024-02-14T12:38:54;41.15;;;10.52;;
83895;SDS011;74045;42.812;74.638;2024-02-14T12:41:20;40.05;;;10.20;;
83895;SDS011;74045;42.812;74.638;2024-02-14T12:43:47;40.78;;;9.10;;
83895;SDS011;74045;42.812;74.638;2024-02-14T12:46:13;41.35;;;10.32;;
83895;SDS011;74045;42.812;74.638;2024-02-14T12:48:39;32.85;;;10.30;;
83895;SDS011;74045;42.812;74.638;2024-02-14T12:51:05;28.92;;;9.02;;
83895;SDS011;74045;42.812;74.638;2024-02-14T12:53:30;27.85;;;8.75;;
83895;SDS011;74045;42.812;74.638;2024-02-14T12:55:57;24.40;;;7.45;;
83895;SDS011;74045;42.812;74.638;2024-02-14T12:58:22;26.23;;;7.18;;
83895;SDS011;74045;42.812;74.638;2024-02-14T13:00:48;18.85;;;7.32;;
83895;SDS011;74045;42.812;74.638;2024-02-14T13:03:14;18.40;;;7.07;;
83895;SDS011;74045;42.812;74.638;2024-02-14T13:05:40;19.88;;;5.20;;
83895;SDS011;74045;42.812;74.638;2024-02-14T13:08:06;13.98;;;5.38;;
83895;SDS011;74045;42.812;74.638;2024-02-14T13:10:35;19.63;;;5.32;;
83895;SDS011;74045;42.812;74.638;2024-02-14T13:13:01;35.28;;;13.20;;
83895;SDS011;74045;42.812;74.638;2024-02-14T13:15:27;44.20;;;16.13;;
83895;SDS011;74045;42.812;74.638;2024-02-14T13:17:53;42.75;;;16.33;;
83895;SDS011;74045;42.812;74.638;2024-02-14T13:20:19;40.17;;;16.70;;
83895;SDS011;74045;42.812;74.638;2024-02-14T13:22:45;36.97;;;14.43;;
83895;SDS011;74045;42.812;74.638;2024-02-14T13:25:11;30.42;;;12.23;;
83895;SDS011;74045;42.812;74.638;2024-02-14T13:27:37;30.80;;;11.32;;
83895;SDS011;74045;42.812;74.638;2024-02-14T13:30:03;25.10;;;10.30;;
83895;SDS011;74045;42.812;74.638;2024-02-14T13:32:30;20.27;;;8.15;;
83895;SDS011;74045;42.812;74.638;2024-02-14T13:34:55;18.55;;;6.15;;
83895;SDS011;74045;42.812;74.638;2024-02-14T13:37:21;16.80;;;5.88;;
83895;SDS011;74045;42.812;74.638;2024-02-14T13:39:48;14.45;;;5.95;;
83895;SDS011;74045;42.812;74.638;2024-02-14T13:42:14;16.02;;;4.60;;
83895;SDS011;74045;42.812;74.638;2024-02-14T13:44:39;14.35;;;4.63;;
83895;SDS011;74045;42.812;74.638;2024-02-14T13:47:05;20.67;;;4.70;;
83895;SDS011;74045;42.812;74.638;2024-02-14T13:49:31;14.65;;;4.38;;
83895;SDS011;74045;42.812;74.638;2024-02-14T13:51:57;12.90;;;4.30;;
83895;SDS011;74045;42.812;74.638;2024-02-14T13:54:23;15.27;;;4.90;;
83895;SDS011;74045;42.812;74.638;2024-02-14T13:56:49;18.10;;;4.70;;
83895;SDS011;74045;42.812;74.638;2024-02-14T13:59:16;25.95;;;5.72;;
83895;SDS011;74045;42.812;74.638;2024-02-14T14:01:42;22.70;;;5.80;;
83895;SDS011;74045;42.812;74.638;2024-02-14T14:04:08;23.95;;;6.32;;
83895;SDS011;74045;42.812;74.638;2024-02-14T14:06:33;17.65;;;5.88;;
83895;SDS011;74045;42.812;74.638;2024-02-14T14:09:00;29.65;;;7.10;;
83895;SDS011;74045;42.812;74.638;2024-02-14T14:11:28;34.42;;;7.28;;
83895;SDS011;74045;42.812;74.638;2024-02-14T14:13:53;24.35;;;7.13;;
83895;SDS011;74045;42.812;74.638;2024-02-14T14:16:19;48.05;;;10.50;;
83895;SDS011;74045;42.812;74.638;2024-02-14T14:18:48;28.77;;;9.77;;
83895;SDS011;74045;42.812;74.638;2024-02-14T14:21:14;41.90;;;10.45;;
83895;SDS011;74045;42.812;74.638;2024-02-14T14:23:40;43.47;;;10.85;;